Time;durP1;ratioP1;P1;durP2;ratioP2;P2;SDS_P1;SDS_P2;PMS_P1;PMS_P2;Temp;Humidity;BMP_temperature;BMP_pressure;BME280_temperature;BME280_humidity;BME280_pressure;Samples;Min_cycle;Max_cycle;Signal;HPM_P1;HPM_P2
2021/03/26 00:01:00;;;;;;;6.93;5.90;;;;;;;8.01;62.11;99392.25;5073603;28;20102;-61
2021/03/26 00:03:29;;;;;;;11.65;5.68;;;;;;;8.04;61.97;99398.03;5073781;28;20407;-61
2021/03/26 00:05:59;;;;;;;8.95;5.95;;;;;;;7.89;62.34;99400.47;5073563;28;20561;-62
2021/03/26 00:08:27;;;;;;;10.13;6.00;;;;;;;7.89;62.34;99402.28;5073523;28;20040;-61
2021/03/26 00:10:54;;;;;;;8.00;5.93;;;;;;;7.88;62.44;99398.00;5073262;28;20044;-61
2021/03/26 00:13:21;;;;;;;8.18;5.03;;;;;;;7.82;62.55;99412.59;5073763;28;20449;-62
2021/03/26 00:15:48;;;;;;;9.80;5.45;;;;;;;7.87;62.44;99401.59;5073468;28;20040;-61
2021/03/26 00:18:15;;;;;;;8.65;5.45;;;;;;;7.80;62.41;99395.34;5073228;28;20041;-63
2021/03/26 00:20:42;;;;;;;8.68;5.65;;;;;;;7.70;62.63;99398.09;5073428;28;20048;-61
2021/03/26 00:23:09;;;;;;;11.75;5.75;;;;;;;7.69;63.03;99401.72;5073470;28;20040;-62
2021/03/26 00:25:37;;;;;;;14.07;5.47;;;;;;;7.71;62.96;99399.72;5073245;28;20044;-61
2021/03/26 00:28:05;;;;;;;8.13;5.47;;;;;;;7.60;62.94;99398.22;5073116;28;20094;-61
2021/03/26 00:30:33;;;;;;;11.10;6.40;;;;;;;7.58;62.98;99388.84;5073316;28;20048;-61
2021/03/26 00:33:01;;;;;;;9.55;5.43;;;;;;;7.50;63.14;99388.81;5073296;28;20049;-61
2021/03/26 00:35:28;;;;;;;9.55;5.80;;;;;;;7.44;63.24;99387.63;5072838;28;20509;-61
2021/03/26 00:37:56;;;;;;;9.55;6.32;;;;;;;7.41;63.26;99391.41;5072834;28;20413;-61
2021/03/26 00:40:23;;;;;;;9.00;5.63;;;;;;;7.31;63.35;99389.88;5072861;28;20049;-61
2021/03/26 00:42:51;;;;;;;8.82;5.50;;;;;;;7.27;63.71;99401.72;5073026;28;20045;-61
2021/03/26 00:45:21;;;;;;;11.95;6.15;;;;;;;7.24;63.77;99397.56;5072763;28;20067;-61
2021/03/26 00:47:48;;;;;;;6.75;5.55;;;;;;;7.26;63.69;99400.84;5071455;28;20047;-62
2021/03/26 00:50:18;;;;;;;7.47;5.38;;;;;;;7.19;63.64;99395.41;5071507;28;20040;-62
2021/03/26 00:52:45;;;;;;;8.43;6.28;;;;;;;7.16;63.58;99392.28;5072763;28;20037;-61
2021/03/26 00:55:14;;;;;;;9.63;5.82;;;;;;;7.07;63.87;99393.22;5072672;28;20526;-62
2021/03/26 00:57:41;;;;;;;8.68;5.78;;;;;;;7.03;64.05;99390.06;5072601;28;20028;-61
2021/03/26 01:00:13;;;;;;;9.07;6.05;;;;;;;6.97;64.38;99392.47;5072588;28;20552;-62
2021/03/26 01:02:39;;;;;;;12.40;5.88;;;;;;;7.03;64.34;99390.06;5072595;28;20079;-61
2021/03/26 01:05:08;;;;;;;12.77;6.68;;;;;;;6.95;64.19;99395.28;5072513;28;20050;-61
2021/03/26 01:07:35;;;;;;;9.20;5.75;;;;;;;6.86;64.48;99391.78;5072301;28;20045;-61
2021/03/26 01:10:04;;;;;;;11.85;6.22;;;;;;;6.82;64.69;99387.81;5071095;28;20079;-61
2021/03/26 01:12:31;;;;;;;10.07;6.05;;;;;;;6.78;64.76;99389.09;5071430;28;20048;-61
2021/03/26 01:14:58;;;;;;;11.98;6.78;;;;;;;6.72;65.13;99387.06;5070956;28;20101;-61
2021/03/26 01:17:26;;;;;;;8.50;6.07;;;;;;;6.73;65.19;99387.88;5070922;28;20033;-61
2021/03/26 01:19:53;;;;;;;12.50;6.00;;;;;;;6.70;65.06;99384.59;5072135;28;20109;-61
2021/03/26 01:22:20;;;;;;;8.95;5.93;;;;;;;6.61;65.25;99384.69;5070670;28;20498;-61
2021/03/26 01:24:48;;;;;;;12.68;7.03;;;;;;;6.61;65.53;99388.16;5070907;28;20072;-61
2021/03/26 01:27:17;;;;;;;12.95;6.70;;;;;;;6.59;65.38;99382.22;5070868;28;20059;-61
2021/03/26 01:30:01;;;;;;;11.03;6.07;;;;;;;6.54;65.83;99384.47;5071038;28;20453;-62
2021/03/26 01:32:28;;;;;;;11.85;6.57;;;;;;;6.56;65.63;99381.69;5072281;28;20068;-62
2021/03/26 01:34:55;;;;;;;9.52;6.25;;;;;;;6.53;65.78;99380.22;5071882;28;20044;-62
2021/03/26 01:37:22;;;;;;;10.55;6.65;;;;;;;6.55;65.46;99377.41;5070783;28;20164;-61
2021/03/26 01:39:50;;;;;;;11.02;6.82;;;;;;;6.47;65.67;99370.28;5070684;28;20110;-61
2021/03/26 01:42:23;;;;;;;13.70;7.05;;;;;;;6.36;65.96;99368.72;5070898;28;20067;-62
2021/03/26 01:44:50;;;;;;;13.88;8.30;;;;;;;6.32;66.07;99363.94;5070758;28;20051;-61
2021/03/26 01:47:23;;;;;;;13.70;7.75;;;;;;;6.28;66.24;99360.78;5072076;28;20045;-62
2021/03/26 01:49:51;;;;;;;22.73;7.28;;;;;;;6.23;66.34;99364.84;5070758;28;20442;-61
2021/03/26 01:52:19;;;;;;;13.05;7.20;;;;;;;6.19;66.53;99359.88;5071915;28;20074;-62
2021/03/26 01:54:46;;;;;;;11.85;7.05;;;;;;;6.20;66.78;99356.31;5070637;28;20045;-61
2021/03/26 01:57:15;;;;;;;13.05;7.93;;;;;;;6.22;66.60;99353.53;5070799;28;20048;-61
2021/03/26 01:59:59;;;;;;;13.63;8.32;;;;;;;6.20;66.62;99355.47;5072096;28;20562;-61
2021/03/26 02:02:28;;;;;;;14.05;8.73;;;;;;;6.15;66.46;99349.84;5071940;28;20049;-61
2021/03/26 02:05:26;;;;;;;13.32;7.75;;;;;;;6.04;66.60;99356.16;5072337;28;20087;-61
2021/03/26 02:08:12;;;;;;;11.63;8.02;;;;;;;5.96;66.93;99358.72;5070368;28;20131;-61
2021/03/26 02:10:49;;;;;;;13.88;7.82;;;;;;;5.98;67.12;99348.88;5070393;28;20498;-62
2021/03/26 02:13:24;;;;;;;14.30;8.00;;;;;;;6.04;66.90;99342.19;5071870;28;20040;-62
2021/03/26 02:15:53;;;;;;;12.18;8.50;;;;;;;5.99;66.60;99342.63;5070464;28;20072;-62
2021/03/26 02:18:24;;;;;;;13.85;8.32;;;;;;;5.88;67.16;99350.72;5070169;28;20131;-61
2021/03/26 02:20:56;;;;;;;12.55;7.72;;;;;;;5.88;67.22;99350.72;5070325;28;20044;-61
2021/03/26 02:23:26;;;;;;;11.48;8.48;;;;;;;5.82;66.96;99353.94;5070538;28;20578;-61
2021/03/26 02:26:17;;;;;;;12.82;8.50;;;;;;;5.76;67.18;99349.28;5070250;28;20185;-61
2021/03/26 02:28:45;;;;;;;13.43;8.35;;;;;;;5.81;67.52;99352.28;5070203;28;20498;-61
2021/03/26 02:31:43;;;;;;;13.07;7.65;;;;;;;5.80;67.15;99350.66;5070104;28;20087;-62
2021/03/26 02:34:11;;;;;;;13.18;7.57;;;;;;;5.75;67.09;99352.88;5073797;28;20154;-61
2021/03/26 02:36:44;;;;;;;16.92;7.97;;;;;;;5.71;67.28;99353.19;5074002;28;20044;-61
2021/03/26 02:39:26;;;;;;;12.35;8.32;;;;;;;5.66;67.34;99357.19;5074005;28;20048;-61
2021/03/26 02:42:00;;;;;;;10.63;7.90;;;;;;;5.58;67.38;99359.72;5074112;28;20052;-62
2021/03/26 02:44:50;;;;;;;11.57;7.82;;;;;;;5.60;67.30;99357.81;5083926;28;20052;-62
2021/03/26 02:47:32;;;;;;;13.07;8.90;;;;;;;5.54;67.41;99356.56;5093667;28;20068;-61
2021/03/26 02:50:18;;;;;;;11.43;7.70;;;;;;;5.40;68.06;99357.09;5083932;28;20049;-61
2021/03/26 02:52:52;;;;;;;10.48;7.50;;;;;;;5.45;68.31;99355.66;5075192;28;20044;-62
2021/03/26 02:55:26;;;;;;;12.40;7.82;;;;;;;5.44;67.98;99355.81;5074833;28;20041;-62
2021/03/26 02:57:57;;;;;;;13.00;8.18;;;;;;;5.47;67.98;99348.50;5074591;28;20110;-62
2021/03/26 03:00:28;;;;;;;16.85;9.93;;;;;;;5.50;67.63;99349.16;5074003;28;20040;-62
2021/03/26 03:02:59;;;;;;;15.23;8.63;;;;;;;5.42;67.91;99350.69;5073974;28;20059;-62
2021/03/26 03:05:30;;;;;;;13.63;9.18;;;;;;;5.37;68.17;99349.50;5075023;28;20052;-62
2021/03/26 03:08:06;;;;;;;12.43;8.73;;;;;;;5.39;68.19;99348.41;5073288;28;20050;-61
2021/03/26 03:11:01;;;;;;;13.13;8.90;;;;;;;5.42;68.00;99347.25;5071672;28;20524;-61
2021/03/26 03:13:42;;;;;;;12.13;8.77;;;;;;;5.37;68.06;99341.63;5074181;28;20072;-62
2021/03/26 03:16:18;;;;;;;18.50;10.10;;;;;;;5.31;68.13;99350.09;5074844;28;20562;-62
2021/03/26 03:18:51;;;;;;;18.92;9.65;;;;;;;5.24;68.17;99347.22;5073360;28;20044;-62
2021/03/26 03:21:29;;;;;;;17.80;9.77;;;;;;;5.18;68.44;99339.91;5074792;28;20510;-63
2021/03/26 03:24:02;;;;;;;16.13;10.27;;;;;;;5.11;68.44;99333.63;5074606;28;20054;-61
2021/03/26 03:26:41;;;;;;;17.77;9.35;;;;;;;5.03;68.60;99336.16;5074734;28;20398;-61
2021/03/26 03:29:16;;;;;;;17.77;9.43;;;;;;;4.99;69.05;99335.59;5073329;28;20045;-62
2021/03/26 03:32:20;;;;;;;15.52;8.98;;;;;;;5.03;68.87;99334.34;5073044;28;20553;-61
2021/03/26 03:35:02;;;;;;;17.98;10.10;;;;;;;5.06;68.75;99334.06;5073003;28;20106;-61
2021/03/26 03:37:35;;;;;;;14.48;8.75;;;;;;;5.07;68.95;99329.66;5073062;28;20418;-61
2021/03/26 03:40:10;;;;;;;13.32;8.43;;;;;;;5.06;68.80;99333.22;5074418;28;20037;-61
2021/03/26 03:42:45;;;;;;;13.77;8.95;;;;;;;5.08;68.90;99336.53;5073225;28;20051;-62
2021/03/26 03:45:18;;;;;;;13.80;9.07;;;;;;;5.12;68.58;99336.09;5072155;28;20074;-61
2021/03/26 03:47:54;;;;;;;14.88;8.80;;;;;;;5.10;68.59;99334.56;5072605;28;20048;-61
2021/03/26 03:50:29;;;;;;;15.98;9.23;;;;;;;5.12;68.63;99340.50;5074357;28;20033;-60
2021/03/26 03:53:04;;;;;;;13.93;7.85;;;;;;;5.15;68.51;99332.38;5072827;28;20055;-59
2021/03/26 03:55:37;;;;;;;16.90;8.35;;;;;;;5.20;68.58;99328.34;5072690;28;20052;-60
2021/03/26 03:58:15;;;;;;;13.32;7.97;;;;;;;5.33;68.41;99329.78;5073726;28;20098;-60
2021/03/26 04:00:52;;;;;;;11.05;8.50;;;;;;;5.34;68.03;99326.19;5072766;28;20058;-63
2021/03/26 04:03:23;;;;;;;12.00;8.52;;;;;;;5.29;67.94;99324.00;5072886;28;20045;-60
2021/03/26 04:05:55;;;;;;;16.52;9.35;;;;;;;5.26;67.69;99328.72;5073777;28;20044;-60
2021/03/26 04:08:30;;;;;;;16.58;9.93;;;;;;;5.14;67.93;99325.47;5072659;28;20064;-60
2021/03/26 04:11:03;;;;;;;15.77;8.60;;;;;;;5.19;68.30;99325.88;5072642;28;20052;-59
2021/03/26 04:13:39;;;;;;;15.40;8.87;;;;;;;5.24;68.33;99320.19;5074099;28;20032;-60
2021/03/26 04:16:11;;;;;;;13.60;9.18;;;;;;;5.24;67.79;99321.00;5073728;28;20062;-60
2021/03/26 04:18:46;;;;;;;16.60;9.00;;;;;;;5.16;68.16;99323.53;5073281;28;20032;-60
2021/03/26 04:21:15;;;;;;;14.05;9.80;;;;;;;5.21;68.18;99329.97;5074029;28;20055;-60
2021/03/26 04:23:59;;;;;;;16.17;10.73;;;;;;;5.15;67.95;99329.75;5072347;28;20074;-61
2021/03/26 04:26:43;;;;;;;14.02;10.38;;;;;;;5.05;68.05;99321.91;5072286;28;20098;-60
2021/03/26 04:29:47;;;;;;;15.43;10.45;;;;;;;4.94;68.29;99322.94;5068042;28;20110;-60
2021/03/26 04:32:28;;;;;;;18.90;11.15;;;;;;;4.97;68.60;99325.25;5072177;28;20121;-60
2021/03/26 04:34:56;;;;;;;14.25;9.07;;;;;;;4.96;68.26;99326.22;5071812;28;20043;-61
2021/03/26 04:37:34;;;;;;;18.27;10.07;;;;;;;5.02;68.43;99324.00;5071560;28;20048;-61
2021/03/26 04:40:10;;;;;;;19.05;9.98;;;;;;;4.98;68.44;99320.88;5071903;28;20051;-61
2021/03/26 04:42:50;;;;;;;14.77;10.45;;;;;;;5.00;68.63;99320.72;5071673;28;20044;-60
2021/03/26 04:45:24;;;;;;;19.40;10.20;;;;;;;5.01;68.41;99322.34;5071354;28;20072;-60
2021/03/26 04:48:15;;;;;;;17.08;10.98;;;;;;;4.96;68.41;99317.53;5071406;28;20047;-60
2021/03/26 04:51:09;;;;;;;14.70;9.90;;;;;;;4.85;68.37;99315.91;5072731;28;20048;-61
2021/03/26 04:54:01;;;;;;;16.33;10.48;;;;;;;4.81;68.64;99313.72;5072725;28;20048;-61
2021/03/26 04:56:35;;;;;;;21.35;13.35;;;;;;;4.74;68.80;99321.34;5071665;28;20517;-60
2021/03/26 04:59:36;;;;;;;17.45;11.23;;;;;;;4.74;68.74;99316.13;5068684;28;20109;-61
2021/03/26 05:02:14;;;;;;;18.92;11.75;;;;;;;4.74;68.90;99315.28;5071357;28;20059;-62
2021/03/26 05:04:46;;;;;;;19.23;11.15;;;;;;;4.68;68.74;99317.50;5071082;28;20051;-62
2021/03/26 05:07:19;;;;;;;17.10;10.88;;;;;;;4.66;69.08;99318.63;5072478;28;20047;-62
2021/03/26 05:09:56;;;;;;;18.58;11.57;;;;;;;4.65;69.17;99312.56;5071063;28;20076;-62
2021/03/26 05:12:35;;;;;;;17.52;11.68;;;;;;;4.68;69.14;99312.25;5071051;28;20086;-62
2021/03/26 05:15:20;;;;;;;17.88;11.23;;;;;;;4.68;69.10;99314.88;5070832;28;20048;-62
2021/03/26 05:17:57;;;;;;;16.90;10.77;;;;;;;4.70;69.11;99304.28;5070868;28;20143;-62
2021/03/26 05:20:32;;;;;;;19.40;10.82;;;;;;;4.72;69.17;99321.47;5071065;28;20048;-62
2021/03/26 05:23:26;;;;;;;21.13;11.30;;;;;;;4.71;69.07;99316.41;5071998;28;20063;-62
2021/03/26 05:26:17;;;;;;;18.40;11.15;;;;;;;4.64;68.90;99315.31;5069127;28;20059;-62
2021/03/26 05:28:51;;;;;;;17.38;10.77;;;;;;;4.60;69.09;99316.56;5070620;28;20036;-62
2021/03/26 05:31:43;;;;;;;18.23;10.85;;;;;;;4.63;69.13;99316.28;5070765;28;20094;-62
2021/03/26 05:34:27;;;;;;;18.63;11.23;;;;;;;4.70;69.14;99309.50;5070521;28;20044;-62
2021/03/26 05:37:06;;;;;;;23.43;12.43;;;;;;;4.70;68.67;99304.28;5072068;28;20044;-62
2021/03/26 05:39:57;;;;;;;16.55;11.23;;;;;;;4.70;68.50;99315.56;5072106;28;20048;-62
2021/03/26 05:42:48;;;;;;;19.40;11.50;;;;;;;4.69;68.43;99307.84;5072335;28;20067;-61
2021/03/26 05:45:38;;;;;;;18.80;11.90;;;;;;;4.63;68.60;99316.28;5070554;28;20048;-62
2021/03/26 05:48:32;;;;;;;17.58;10.80;;;;;;;4.57;68.75;99316.84;5071752;28;20052;-61
2021/03/26 05:51:32;;;;;;;25.02;12.27;;;;;;;4.61;68.68;99319.06;5070597;28;20414;-62
2021/03/26 05:54:11;;;;;;;23.73;12.73;;;;;;;4.69;68.75;99321.78;5074353;28;20098;-62
2021/03/26 05:57:05;;;;;;;29.35;13.30;;;;;;;4.70;68.58;99318.19;5071659;28;20497;-63
2021/03/26 05:59:47;;;;;;;33.60;15.63;;;;;;;4.77;68.63;99312.38;5070287;28;20499;-62
2021/03/26 06:02:43;;;;;;;35.60;15.52;;;;;;;4.80;68.73;99310.28;5070669;28;20442;-62
2021/03/26 06:05:56;;;;;;;28.25;13.85;;;;;;;4.88;68.74;99313.03;5071978;28;20051;-62
2021/03/26 06:09:02;;;;;;;22.20;12.88;;;;;;;4.99;68.26;99305.97;5075198;28;20067;-62
2021/03/26 06:12:16;;;;;;;26.08;14.52;;;;;;;5.03;67.92;99307.31;5075774;28;20085;-62
2021/03/26 06:15:46;;;;;;;20.63;11.88;;;;;;;5.14;67.62;99317.59;5075974;28;20051;-62
2021/03/26 06:18:51;;;;;;;18.15;11.55;;;;;;;5.19;67.53;99318.00;5042479;28;20048;-62
2021/03/26 06:22:02;;;;;;;18.92;11.18;;;;;;;5.15;67.10;99314.84;5075726;28;20567;-62
2021/03/26 06:25:31;;;;;;;23.85;12.45;;;;;;;5.26;67.11;99316.44;5075782;28;20051;-62
2021/03/26 06:28:16;;;;;;;20.88;11.88;;;;;;;5.28;66.92;99313.69;5095285;28;20048;-62
2021/03/26 06:31:06;;;;;;;19.75;11.75;;;;;;;5.33;66.98;99314.06;5092901;28;20079;-62
2021/03/26 06:34:45;;;;;;;21.85;13.27;;;;;;;5.46;66.58;99306.66;5063921;28;20410;-62
2021/03/26 06:37:41;;;;;;;18.20;11.63;;;;;;;5.52;66.84;99305.28;5075435;28;20052;-62
2021/03/26 06:40:38;;;;;;;20.42;11.38;;;;;;;5.59;66.44;99309.78;5075229;28;20521;-62
2021/03/26 06:43:22;;;;;;;18.52;11.55;;;;;;;5.67;66.56;99294.13;5073850;28;20052;-62
2021/03/26 06:45:59;;;;;;;24.00;13.13;;;;;;;5.73;66.19;99303.19;5073901;28;20048;-62
2021/03/26 06:48:52;;;;;;;19.67;12.38;;;;;;;5.79;66.49;99301.75;5074941;28;20041;-62
2021/03/26 06:51:48;;;;;;;19.33;13.20;;;;;;;5.93;66.34;99299.47;5074923;28;20502;-62
2021/03/26 06:54:31;;;;;;;19.20;13.45;;;;;;;6.01;66.14;99300.53;5062137;28;20493;-62
2021/03/26 06:57:22;;;;;;;19.52;12.68;;;;;;;6.16;66.33;99288.47;5074818;28;20032;-62
2021/03/26 07:00:00;;;;;;;22.55;13.52;;;;;;;6.28;65.97;99289.06;5075325;28;20048;-61
2021/03/26 07:03:00;;;;;;;20.75;12.70;;;;;;;6.38;65.80;99292.44;5075098;28;20055;-62
2021/03/26 07:05:41;;;;;;;21.98;12.57;;;;;;;6.52;65.77;99291.84;5074776;28;20047;-62
2021/03/26 07:08:26;;;;;;;22.50;13.02;;;;;;;6.68;65.67;99291.13;5075197;28;20056;-62
2021/03/26 07:11:08;;;;;;;18.90;13.18;;;;;;;6.79;65.51;99298.75;5073522;28;20044;-62
2021/03/26 07:14:02;;;;;;;20.38;13.40;;;;;;;6.87;65.15;99290.09;5074754;28;20490;-62
2021/03/26 07:16:38;;;;;;;;;;;;;;;6.93;65.08;99290.28;5073707;28;20600;-61
2021/03/26 07:19:20;;;;;;;22.08;13.65;;;;;;;6.94;65.69;99284.06;5073454;28;19928;-61
2021/03/26 07:22:02;;;;;;;23.50;15.48;;;;;;;7.09;65.70;99286.06;5074750;28;20482;-61
2021/03/26 07:24:55;;;;;;;24.33;14.15;;;;;;;7.25;65.82;99293.22;5074558;28;20044;-61
2021/03/26 07:27:38;;;;;;;22.35;15.15;;;;;;;7.38;65.76;99286.50;5071777;28;20059;-61
2021/03/26 07:30:18;;;;;;;21.15;14.98;;;;;;;7.62;65.62;99287.53;5074279;28;20044;-61
2021/03/26 07:33:11;;;;;;;23.40;15.23;;;;;;;7.80;65.48;99290.88;5074401;28;20079;-62
2021/03/26 07:36:03;;;;;;;23.42;15.02;;;;;;;7.97;65.35;99288.25;5072866;28;20067;-62
2021/03/26 07:38:54;;;;;;;20.88;14.70;;;;;;;8.13;65.18;99283.81;5074146;28;20708;-62
2021/03/26 07:41:46;;;;;;;28.50;16.65;;;;;;;8.25;64.89;99286.13;5073971;28;20115;-60
2021/03/26 07:44:30;;;;;;;25.15;15.63;;;;;;;8.34;64.82;99291.22;5073884;28;20044;-60
2021/03/26 07:47:17;;;;;;;25.10;16.45;;;;;;;8.44;64.74;99291.06;5073919;28;20135;-60
2021/03/26 07:50:16;;;;;;;22.98;15.45;;;;;;;8.63;64.44;99287.25;5073748;28;20036;-60
2021/03/26 07:52:52;;;;;;;22.77;15.13;;;;;;;8.81;64.23;99285.19;5074022;28;20051;-60
2021/03/26 07:55:27;;;;;;;25.75;15.80;;;;;;;8.92;64.27;99284.84;5073703;28;20402;-60
2021/03/26 07:58:27;;;;;;;24.60;15.88;;;;;;;9.09;63.85;99285.59;5073775;28;20119;-60
2021/03/26 08:01:24;;;;;;;20.70;15.63;;;;;;;9.24;63.35;99280.44;5059799;28;20189;-60
2021/03/26 08:04:04;;;;;;;22.10;14.43;;;;;;;9.40;63.25;99279.53;5073792;28;20486;-60
2021/03/26 08:06:53;;;;;;;23.50;14.73;;;;;;;9.56;63.07;99279.44;5073698;28;20059;-61
2021/03/26 08:09:34;;;;;;;23.15;14.65;;;;;;;9.69;62.64;99276.22;5073400;28;20044;-60
2021/03/26 08:12:10;;;;;;;19.30;14.52;;;;;;;9.82;62.36;99279.09;5072303;28;20106;-61
2021/03/26 08:15:01;;;;;;;22.33;14.95;;;;;;;10.03;62.13;99280.28;5073407;28;20044;-61
2021/03/26 08:17:39;;;;;;;22.77;14.50;;;;;;;10.26;61.67;99275.81;5073279;28;20548;-61
2021/03/26 08:20:22;;;;;;;23.95;14.30;;;;;;;10.43;61.06;99279.13;5073469;28;20060;-61
2021/03/26 08:23:00;;;;;;;22.55;13.50;;;;;;;10.61;60.72;99276.13;5073371;28;20043;-61
2021/03/26 08:25:36;;;;;;;23.23;13.88;;;;;;;10.80;60.20;99272.97;5073349;28;20044;-61
2021/03/26 08:28:15;;;;;;;17.65;13.07;;;;;;;10.88;59.64;99275.50;5073300;28;20040;-61
2021/03/26 08:30:48;;;;;;;22.13;14.30;;;;;;;11.00;59.25;99277.69;5071709;28;20056;-61
2021/03/26 08:33:28;;;;;;;24.88;14.43;;;;;;;11.06;58.45;99280.44;5073201;28;20036;-61
2021/03/26 08:36:10;;;;;;;20.05;14.32;;;;;;;11.19;58.37;99285.06;5073053;28;20067;-61
2021/03/26 08:38:53;;;;;;;20.23;15.10;;;;;;;11.37;58.37;99282.03;5072994;28;20049;-61
2021/03/26 08:41:26;;;;;;;23.80;13.50;;;;;;;11.49;57.62;99277.88;5072965;28;20048;-61
2021/03/26 08:43:55;;;;;;;18.15;13.75;;;;;;;11.57;57.40;99271.66;5073047;28;20044;-61
2021/03/26 08:46:25;;;;;;;20.27;13.98;;;;;;;11.70;57.33;99278.91;5072787;28;20044;-61
2021/03/26 08:49:02;;;;;;;18.17;12.18;;;;;;;11.77;57.22;99271.88;5072980;28;20044;-61
2021/03/26 08:52:06;;;;;;;21.50;13.32;;;;;;;11.90;56.37;99269.38;5072715;28;20056;-61
2021/03/26 08:54:51;;;;;;;22.00;13.27;;;;;;;11.97;56.55;99272.09;5074054;28;20047;-61
2021/03/26 08:57:25;;;;;;;18.58;12.73;;;;;;;12.09;56.37;99267.91;5074038;28;20059;-61
2021/03/26 09:00:17;;;;;;;21.88;11.80;;;;;;;12.18;56.19;99271.25;5072664;28;20509;-61
2021/03/26 09:02:56;;;;;;;25.65;12.38;;;;;;;12.34;55.37;99265.69;5072621;28;20051;-61
2021/03/26 09:05:38;;;;;;;18.05;12.43;;;;;;;12.53;54.71;99262.34;5072536;28;20549;-61
2021/03/26 09:08:20;;;;;;;19.02;12.13;;;;;;;12.62;54.65;99266.47;5072154;28;20051;-61
2021/03/26 09:11:09;;;;;;;17.77;9.95;;;;;;;12.76;53.87;99261.25;5072084;28;20033;-62
2021/03/26 09:13:58;;;;;;;13.10;8.65;;;;;;;12.94;52.47;99266.88;5072274;28;20041;-61
2021/03/26 09:16:28;;;;;;;13.20;8.38;;;;;;;13.10;52.18;99261.25;5072087;28;20052;-61
2021/03/26 09:19:04;;;;;;;12.43;9.10;;;;;;;13.37;52.39;99259.53;5072122;28;20483;-61
2021/03/26 09:21:52;;;;;;;15.20;8.48;;;;;;;13.58;52.16;99255.09;5072206;28;20044;-61
2021/03/26 09:24:33;;;;;;;13.57;9.38;;;;;;;13.67;51.50;99253.88;5072116;28;20051;-61
2021/03/26 09:27:12;;;;;;;12.60;8.50;;;;;;;13.75;50.84;99252.88;5072116;28;20090;-61
2021/03/26 09:29:50;;;;;;;10.10;7.82;;;;;;;13.75;50.65;99253.69;5071999;28;20045;-61
2021/03/26 09:32:23;;;;;;;11.48;8.00;;;;;;;13.69;50.14;99251.03;5072098;28;20045;-61
2021/03/26 09:35:05;;;;;;;12.60;7.38;;;;;;;13.57;49.73;99253.44;5072001;28;20040;-61
2021/03/26 09:37:39;;;;;;;10.48;7.80;;;;;;;13.36;49.68;99254.41;5071941;28;20105;-61
2021/03/26 09:40:19;;;;;;;12.30;8.25;;;;;;;13.23;49.86;99246.41;5072028;28;20076;-61
2021/03/26 09:42:51;;;;;;;13.65;7.75;;;;;;;13.07;50.09;99247.53;5071478;28;20037;-61
2021/03/26 09:45:26;;;;;;;12.77;7.72;;;;;;;13.13;50.12;99247.56;5072109;28;20491;-62
2021/03/26 09:48:17;;;;;;;9.35;7.35;;;;;;;13.33;49.39;99250.31;5071911;28;20036;-61
2021/03/26 09:50:51;;;;;;;11.68;7.07;;;;;;;13.33;49.62;99239.69;5028506;28;20118;-61
2021/03/26 09:53:19;;;;;;;10.25;7.13;;;;;;;13.50;49.22;99241.97;5072148;28;20128;-61
2021/03/26 09:55:47;;;;;;;12.00;7.60;;;;;;;13.68;48.48;99233.47;5071807;28;20044;-62
2021/03/26 09:58:24;;;;;;;9.02;6.82;;;;;;;13.70;48.55;99234.06;5071626;28;20414;-61
2021/03/26 10:00:59;;;;;;;12.68;7.90;;;;;;;13.97;47.69;99227.75;5071743;28;20133;-62
2021/03/26 10:03:44;;;;;;;8.60;5.63;;;;;;;14.09;46.82;99222.66;5071962;28;20051;-62
2021/03/26 10:06:22;;;;;;;9.23;5.13;;;;;;;14.27;46.19;99222.00;5071722;28;20079;-62
2021/03/26 10:09:06;;;;;;;6.88;5.47;;;;;;;14.36;46.60;99218.13;5082612;28;20032;-61
2021/03/26 10:11:59;;;;;;;8.43;5.78;;;;;;;14.34;46.19;99212.19;5086740;28;20041;-62
2021/03/26 10:14:29;;;;;;;8.95;6.70;;;;;;;14.21;46.32;99204.25;5073568;28;20055;-62
2021/03/26 10:17:38;;;;;;;8.40;5.43;;;;;;;14.13;45.43;99207.94;5074853;28;20518;-62
2021/03/26 10:20:15;;;;;;;9.90;6.55;;;;;;;14.05;45.23;99205.47;5070167;28;20542;-62
2021/03/26 10:22:50;;;;;;;8.90;6.38;;;;;;;14.15;45.86;99202.38;5070565;28;20048;-62
2021/03/26 10:25:25;;;;;;;8.50;4.82;;;;;;;14.30;44.12;99200.34;5071320;28;20044;-62
2021/03/26 10:28:00;;;;;;;6.30;4.25;;;;;;;14.43;43.78;99194.19;5071559;28;20052;-62
2021/03/26 10:30:35;;;;;;;8.45;4.68;;;;;;;14.38;43.45;99198.28;5071644;28;20047;-62
2021/03/26 10:33:13;;;;;;;7.50;4.90;;;;;;;14.47;43.88;99182.09;5071610;28;20067;-62
2021/03/26 10:35:56;;;;;;;7.68;4.68;;;;;;;14.55;44.12;99181.91;5071328;28;20075;-62
2021/03/26 10:38:39;;;;;;;6.50;4.75;;;;;;;14.58;43.30;99176.97;5071552;28;20493;-62
2021/03/26 10:41:12;;;;;;;5.65;4.55;;;;;;;14.42;43.10;99172.09;5071564;28;20045;-62
2021/03/26 10:43:49;;;;;;;10.00;4.18;;;;;;;14.45;42.66;99169.00;5071510;28;20060;-62
2021/03/26 10:46:23;;;;;;;6.07;4.13;;;;;;;14.75;42.67;99168.53;5071301;28;20048;-62
2021/03/26 10:48:58;;;;;;;8.35;4.78;;;;;;;15.03;42.03;99163.69;5071334;28;20078;-62
2021/03/26 10:51:43;;;;;;;8.13;4.85;;;;;;;15.17;41.40;99161.78;5071785;28;20116;-62
2021/03/26 10:54:16;;;;;;;6.15;4.60;;;;;;;15.30;41.57;99152.88;5073522;28;20055;-62
2021/03/26 10:57:12;;;;;;;7.70;5.43;;;;;;;15.36;41.08;99138.72;5073896;28;20059;-62
2021/03/26 10:59:46;;;;;;;9.20;5.30;;;;;;;15.46;41.15;99143.56;5067907;28;20052;-62
2021/03/26 11:02:26;;;;;;;9.20;5.28;;;;;;;15.65;41.32;99134.66;5075229;28;20486;-62
2021/03/26 11:05:14;;;;;;;8.10;5.03;;;;;;;15.79;40.54;99128.16;5075011;28;20048;-61
2021/03/26 11:07:46;;;;;;;6.30;4.65;;;;;;;15.74;40.51;99133.34;5075471;28;20055;-62
2021/03/26 11:10:20;;;;;;;7.47;4.85;;;;;;;15.72;40.11;99130.09;5075336;28;20037;-61
2021/03/26 11:12:51;;;;;;;10.82;5.10;;;;;;;15.92;39.79;99124.59;5075381;28;20052;-61
2021/03/26 11:15:21;;;;;;;9.80;5.10;;;;;;;16.06;39.72;99127.94;5074532;28;20044;-61
2021/03/26 11:18:01;;;;;;;7.75;4.97;;;;;;;16.12;39.70;99116.38;5074711;28;20048;-61
2021/03/26 11:20:42;;;;;;;9.05;5.10;;;;;;;16.08;38.95;99112.50;5074720;28;20041;-61
2021/03/26 11:23:13;;;;;;;8.20;5.00;;;;;;;15.78;38.78;99115.06;5073452;28;20513;-61
2021/03/26 11:25:44;;;;;;;6.85;4.55;;;;;;;15.73;39.58;99104.25;5074347;28;20044;-61
2021/03/26 11:28:19;;;;;;;6.85;4.22;;;;;;;15.58;39.41;99108.00;5074637;28;20036;-61
2021/03/26 11:30:57;;;;;;;5.28;4.75;;;;;;;15.50;39.52;99102.94;5073166;28;20181;-62
2021/03/26 11:33:46;;;;;;;9.90;5.72;;;;;;;15.61;39.40;99101.44;5074924;28;20064;-62
2021/03/26 11:36:53;;;;;;;7.78;5.18;;;;;;;15.75;39.94;99099.50;5074412;28;20044;-62
2021/03/26 11:39:27;;;;;;;9.80;5.15;;;;;;;15.82;39.38;99092.25;5068098;28;20052;-62
2021/03/26 11:42:05;;;;;;;11.00;5.80;;;;;;;15.68;38.55;99086.25;5074408;28;20418;-62
2021/03/26 11:44:52;;;;;;;;;;;;;;;15.47;38.97;99081.25;5074734;28;20406;-62
2021/03/26 11:47:37;;;;;;;5.57;4.25;;;;;;;15.28;38.45;99078.53;5073132;28;19921;-62
2021/03/26 11:50:19;;;;;;;5.63;4.43;;;;;;;15.24;38.77;99081.84;5074410;28;20167;-62
2021/03/26 11:53:19;;;;;;;5.47;4.90;;;;;;;15.08;39.42;99080.53;5074302;28;20052;-61
2021/03/26 11:56:00;;;;;;;5.88;3.97;;;;;;;15.34;39.42;99074.19;5074999;28;20040;-62
2021/03/26 11:58:34;;;;;;;5.97;4.43;;;;;;;15.60;39.13;99068.66;5074366;28;20127;-61
2021/03/26 12:01:08;;;;;;;5.72;4.00;;;;;;;15.74;38.61;99068.56;5074576;28;20108;-61
2021/03/26 12:03:46;;;;;;;8.73;5.65;;;;;;;15.67;39.39;99060.63;5075138;28;20040;-60
2021/03/26 12:06:22;;;;;;;8.95;5.32;;;;;;;15.74;39.21;99060.56;5073206;28;20045;-60
2021/03/26 12:09:07;;;;;;;8.32;4.90;;;;;;;15.98;39.75;99057.03;5073619;28;20532;-61
2021/03/26 12:11:43;;;;;;;5.15;4.43;;;;;;;16.21;38.80;99053.72;5072394;28;20396;-60
2021/03/26 12:14:21;;;;;;;8.85;4.57;;;;;;;16.28;38.09;99049.09;5073628;28;20048;-61
2021/03/26 12:16:59;;;;;;;8.05;5.18;;;;;;;16.40;37.67;99041.16;5072582;28;20044;-62
2021/03/26 12:19:31;;;;;;;6.38;4.55;;;;;;;16.29;37.49;99042.75;5073696;28;20041;-61
2021/03/26 12:22:05;;;;;;;6.82;4.40;;;;;;;16.44;37.69;99029.00;5073743;28;20407;-61
2021/03/26 12:24:39;;;;;;;6.00;4.53;;;;;;;16.62;37.18;99028.16;5073557;28;20047;-62
2021/03/26 12:27:21;;;;;;;9.27;5.38;;;;;;;16.65;37.57;99026.88;5073529;28;20129;-61